Pagrindinis puslapis
METAR-TAF:

METAR-TAF

Oro uostai :

Wattisham, Anglija

platuma: 52-07N, ilguma: 000-58E, Aukštis: 87 m

Dabartinis oras

Ataskaita buvo paskelbta 46 minutes, ne 06:50 UTC
Vėjas 8 kt iš Vakarų/Pietvakarių
Temperatūra 19°C
Drėgmė 88%
Slėgis 1009 hPa
Matomumas 10 km arba daugiau

METAR: EGUW 200650Z AUTO 25008KT 9999 NCD 19/17 Q1009

Laikas: 08:36 (07:36 UTC)


TAF: trūkstamas

Orai ataskaitas ir orų prognozės (METAR, TAF).

turimą stotys yra geltonos ir raudonos taškus žemėlapyje.

Perkelti pele per norėdami pamatyti stoties vardą.

Tada spustelėkite, norėdami matyti oro stebėjimo ir prognozės.

Norėdami pakeisti žemėlapį: spustelėkite ant žalios mygtukų su juodo kryžiaus žemyn,; žalią mygtuką su brūkšneliu, jei norite nutolinti; arba žalių rodyklių gretimoms žemėlapius.


METAR-TAF: